NFTL/HPA METAR and TAF weather

Enter ICAO airport designator
Station Type Date Time Source
NFTL METAR 2019/04/20 18:00 UTC NOAA

NFTL 201800Z 09013KT 9999 SCT017 25/20 Q1014


Station Type Date Time Source
NFTL Decoded METAR 2019/04/20 18:00 UTC NOAA

Haapai, Tonga (NFTL) 19-48S 174-21W 3M
Apr 20, 2019 - 02:00 PM EDT / 2019.04.20 1800 UTC
Wind: from the E (090 degrees) at 15 MPH (13 KT):0
Visibility: greater than 7 mile(s):0
Sky conditions: partly cloudy
Temperature: 77 F (25 C)
Dew Point: 68 F (20 C)
Relative Humidity: 73%
Pressure (altimeter): 29.94 in. Hg (1014 hPa)
ob: NFTL 201800Z 09013KT 9999 SCT017 25/20 Q1014
cycle: 18

Station Type Date Time Source
NFTL TAF 2018/02/21 17:19 UTC NOAA

TAF NFTL 211605Z 2117/2208 12010KT 9999 SCT018

Example: see airport list